createdAt,value
2022-11-05T00:02:32.960Z,3.27
2022-11-05T00:05:18.895Z,3.17
2022-11-05T00:08:08.919Z,3.17
2022-11-05T00:10:37.569Z,3.37
2022-11-05T00:13:25.055Z,3.50
2022-11-05T00:16:11.155Z,3.80
2022-11-05T00:18:38.247Z,3.93
2022-11-05T00:21:05.613Z,4.03
2022-11-05T00:23:51.252Z,3.50
2022-11-05T00:26:18.358Z,3.17
2022-11-05T00:28:45.558Z,3.37
2022-11-05T00:31:14.549Z,2.77
2022-11-05T00:33:43.225Z,2.97
2022-11-05T00:36:11.005Z,2.93
2022-11-05T00:38:38.135Z,3.07
2022-11-05T00:41:08.072Z,2.53
2022-11-05T00:43:54.045Z,2.60
2022-11-05T00:46:21.196Z,3.13
2022-11-05T00:49:06.918Z,3.40
2022-11-05T00:51:34.055Z,3.30
2022-11-05T00:54:01.158Z,2.83
2022-11-05T00:56:28.387Z,2.77
2022-11-05T00:59:02.153Z,2.93
2022-11-05T01:01:34.733Z,3.00
2022-11-05T01:04:01.877Z,2.67
2022-11-05T01:06:29.000Z,2.70
2022-11-05T01:08:56.464Z,2.70
2022-11-05T01:11:37.122Z,2.97
2022-11-05T01:14:09.075Z,2.80
2022-11-05T01:16:39.933Z,2.90
2022-11-05T01:19:08.130Z,3.30
2022-11-05T01:21:35.406Z,3.43
2022-11-05T01:24:02.909Z,2.93
2022-11-05T01:26:30.065Z,3.17
2022-11-05T01:29:00.334Z,2.80
2022-11-05T01:31:28.727Z,3.13
2022-11-05T01:33:55.897Z,2.90
2022-11-05T01:36:23.088Z,3.13
2022-11-05T01:38:53.187Z,3.20
2022-11-05T01:41:22.488Z,3.40
2022-11-05T01:43:51.942Z,3.60
2022-11-05T01:46:22.199Z,3.10
2022-11-05T01:48:54.433Z,3.30
2022-11-05T01:51:26.837Z,3.80
2022-11-05T01:53:59.733Z,4.27
2022-11-05T01:56:36.324Z,3.60
2022-11-05T01:59:06.307Z,3.57
2022-11-05T02:01:33.856Z,3.40
2022-11-05T02:04:04.374Z,3.37
2022-11-05T02:06:33.431Z,3.50
2022-11-05T02:09:02.616Z,3.07
2022-11-05T02:11:30.214Z,3.40
2022-11-05T02:13:57.437Z,3.57
2022-11-05T02:16:24.532Z,3.73
2022-11-05T02:18:57.743Z,3.40
2022-11-05T02:21:24.836Z,3.43
2022-11-05T02:24:19.820Z,4.90
2022-11-05T02:27:10.919Z,5.60
2022-11-05T02:29:37.611Z,5.00
2022-11-05T02:32:27.493Z,4.83
2022-11-05T02:35:18.192Z,4.53
2022-11-05T02:38:01.949Z,3.90
2022-11-05T02:40:45.724Z,3.87
2022-11-05T02:43:47.802Z,3.60
2022-11-05T02:46:31.346Z,3.90
2022-11-05T02:49:04.443Z,4.43
2022-11-05T02:51:40.131Z,4.40
2022-11-05T02:54:17.021Z,5.17
2022-11-05T02:56:48.194Z,4.53
2022-11-05T02:59:17.763Z,4.10
2022-11-05T03:01:46.655Z,4.10
2022-11-05T03:04:19.323Z,4.10
2022-11-05T03:07:09.961Z,3.87
2022-11-05T03:09:55.320Z,4.07
2022-11-05T03:12:39.124Z,4.30
2022-11-05T03:15:26.865Z,4.53
2022-11-05T03:18:21.277Z,4.23
2022-11-05T03:21:00.926Z,5.30
2022-11-05T03:23:34.430Z,5.13
2022-11-05T03:26:30.478Z,5.10
2022-11-05T03:29:08.626Z,5.53
2022-11-05T03:31:37.168Z,5.37
2022-11-05T03:34:06.665Z,5.57
2022-11-05T03:36:39.727Z,5.73
2022-11-05T03:39:13.225Z,6.10
2022-11-05T03:41:43.762Z,5.00
2022-11-05T03:44:14.707Z,5.17
2022-11-05T03:46:49.376Z,4.87
2022-11-05T03:49:23.250Z,4.87
2022-11-05T03:51:54.056Z,5.17
2022-11-05T03:54:21.138Z,5.17
2022-11-05T03:57:15.095Z,5.80
2022-11-05T03:59:47.442Z,4.83
2022-11-05T04:02:16.206Z,4.87
2022-11-05T04:04:43.273Z,4.80
2022-11-05T04:07:32.122Z,4.77
2022-11-05T04:10:23.138Z,4.80
2022-11-05T04:13:08.614Z,4.90
2022-11-05T04:15:57.993Z,4.77
2022-11-05T04:18:24.828Z,4.87
2022-11-05T04:21:10.075Z,4.83
2022-11-05T04:23:55.454Z,5.30
2022-11-05T04:26:23.513Z,4.83
2022-11-05T04:29:12.661Z,4.53
2022-11-05T04:31:42.105Z,4.60
2022-11-05T04:34:08.897Z,5.07
2022-11-05T04:36:40.931Z,5.07
2022-11-05T04:39:07.710Z,5.23
2022-11-05T04:41:34.626Z,4.80
2022-11-05T04:44:01.505Z,4.80
2022-11-05T04:46:28.346Z,5.23
2022-11-05T04:48:55.446Z,4.90
2022-11-05T04:51:24.535Z,5.00
2022-11-05T04:53:51.284Z,5.57
2022-11-05T04:56:25.388Z,5.93
2022-11-05T04:58:52.542Z,6.30
2022-11-05T05:01:23.305Z,5.60
2022-11-05T05:03:54.445Z,5.83
2022-11-05T05:06:22.670Z,5.83
2022-11-05T05:08:51.229Z,7.00
2022-11-05T05:11:20.472Z,6.27
2022-11-05T05:13:47.925Z,7.37
2022-11-05T05:16:25.787Z,6.63
2022-11-05T05:18:53.687Z,7.00
2022-11-05T05:21:42.233Z,6.33
2022-11-05T05:24:10.660Z,6.50
2022-11-05T05:26:39.639Z,6.90
2022-11-05T05:29:07.626Z,6.53
2022-11-05T05:31:35.374Z,6.50
2022-11-05T05:34:07.005Z,5.97
2022-11-05T05:36:36.842Z,6.83
2022-11-05T05:39:10.157Z,6.80
2022-11-05T05:41:36.965Z,6.47
2022-11-05T05:44:05.402Z,6.37
2022-11-05T05:46:32.511Z,6.47
2022-11-05T05:48:59.290Z,6.17
2022-11-05T05:51:28.676Z,5.57
2022-11-05T05:53:55.427Z,7.00
2022-11-05T05:56:25.029Z,6.30
2022-11-05T05:58:52.258Z,6.33
2022-11-05T06:01:20.260Z,13.27
2022-11-05T06:03:48.488Z,10.23
2022-11-05T06:06:19.703Z,8.43
2022-11-05T06:08:47.462Z,7.57
2022-11-05T06:11:14.412Z,8.13
2022-11-05T06:13:41.065Z,8.10
2022-11-05T06:16:09.380Z,7.60
2022-11-05T06:18:36.694Z,8.13
2022-11-05T06:21:05.602Z,7.30
2022-11-05T06:23:34.252Z,7.90
2022-11-05T06:26:02.364Z,8.33
2022-11-05T06:28:29.597Z,8.07
2022-11-05T06:30:57.481Z,7.57
2022-11-05T06:33:25.131Z,7.90
2022-11-05T06:35:52.334Z,7.97
2022-11-05T06:38:19.336Z,8.27
2022-11-05T06:40:46.104Z,8.83
2022-11-05T06:43:13.207Z,8.73
2022-11-05T06:45:40.141Z,6.93
2022-11-05T06:48:06.872Z,7.70
2022-11-05T06:50:33.674Z,8.73
2022-11-05T06:53:01.902Z,11.27
2022-11-05T06:55:30.513Z,14.10
2022-11-05T06:57:57.830Z,10.70
2022-11-05T07:00:24.706Z,10.67
2022-11-05T07:02:51.445Z,9.10
2022-11-05T07:05:18.103Z,10.70
2022-11-05T07:07:45.654Z,12.03
2022-11-05T07:10:15.728Z,9.60
2022-11-05T07:12:42.974Z,9.37
2022-11-05T07:15:12.012Z,8.33
2022-11-05T07:17:42.078Z,8.40
2022-11-05T07:20:12.198Z,9.33
2022-11-05T07:22:38.932Z,8.20
2022-11-05T07:25:06.449Z,9.67
2022-11-05T07:27:40.781Z,9.00
2022-11-05T07:30:09.675Z,8.73
2022-11-05T07:32:40.842Z,9.47
2022-11-05T07:35:09.021Z,9.33
2022-11-05T07:37:46.537Z,12.63
2022-11-05T07:40:14.510Z,11.53
2022-11-05T07:42:45.883Z,9.83
2022-11-05T07:45:13.354Z,8.43
2022-11-05T07:47:49.207Z,7.27
2022-11-05T07:50:21.815Z,8.03
2022-11-05T07:52:49.394Z,7.67
2022-11-05T07:55:17.157Z,7.67
2022-11-05T07:57:55.148Z,7.60
2022-11-05T08:00:25.129Z,6.70
2022-11-05T08:03:14.996Z,7.20
2022-11-05T08:05:47.357Z,6.80
2022-11-05T08:08:16.616Z,8.00
2022-11-05T08:10:43.626Z,7.53
2022-11-05T08:13:10.774Z,7.90
2022-11-05T08:15:38.030Z,7.23
2022-11-05T08:18:11.592Z,7.40
2022-11-05T08:20:38.896Z,7.43
2022-11-05T08:23:05.883Z,8.30
2022-11-05T08:25:32.786Z,8.83
2022-11-05T08:28:08.219Z,8.83
2022-11-05T08:30:35.722Z,9.07
2022-11-05T08:33:09.012Z,12.43
2022-11-05T08:35:37.349Z,17.00
2022-11-05T08:38:10.020Z,11.87
2022-11-05T08:40:37.523Z,9.53
2022-11-05T08:43:06.741Z,9.20
2022-11-05T08:45:36.025Z,9.03
2022-11-05T08:48:06.824Z,11.20
2022-11-05T08:50:37.412Z,11.17
2022-11-05T08:53:05.308Z,9.47
2022-11-05T08:55:32.265Z,9.70
2022-11-05T08:58:04.182Z,8.98
2022-11-05T09:00:33.025Z,8.30
2022-11-05T09:03:01.128Z,7.75
2022-11-05T09:05:29.114Z,7.95
2022-11-05T09:08:00.753Z,7.88
2022-11-05T09:10:28.582Z,8.40
2022-11-05T09:12:57.047Z,8.23
2022-11-05T09:15:24.529Z,8.68
2022-11-05T09:17:57.621Z,8.55
2022-11-05T09:20:24.414Z,8.73
2022-11-05T09:22:54.916Z,9.05
2022-11-05T09:25:24.747Z,9.18
2022-11-05T09:27:51.621Z,10.35
2022-11-05T09:30:18.492Z,9.73
2022-11-05T09:32:48.325Z,8.63
2022-11-05T09:35:15.049Z,7.50
2022-11-05T09:37:42.163Z,8.40
2022-11-05T09:40:12.467Z,7.20
2022-11-05T09:42:42.019Z,7.15
2022-11-05T09:45:15.133Z,7.13
2022-11-05T09:47:51.051Z,6.53
2022-11-05T09:50:30.421Z,7.53
2022-11-05T09:52:57.819Z,6.72
2022-11-05T09:55:32.469Z,6.38
2022-11-05T09:58:13.778Z,6.10
2022-11-05T10:00:41.051Z,6.40
2022-11-05T10:03:13.570Z,7.35
2022-11-05T10:05:49.043Z,7.45
2022-11-05T10:08:28.922Z,6.80
2022-11-05T10:11:19.959Z,7.07
2022-11-05T10:13:54.319Z,7.90
2022-11-05T10:16:20.947Z,7.72
2022-11-05T10:19:04.705Z,8.25
2022-11-05T10:21:59.478Z,7.88
2022-11-05T10:24:20.668Z,8.13
2022-11-05T10:26:53.767Z,9.45
2022-11-05T10:29:29.778Z,8.23
2022-11-05T10:31:58.303Z,8.55
2022-11-05T10:34:29.145Z,8.13
2022-11-05T10:36:58.846Z,7.40
2022-11-05T10:39:29.337Z,7.50
2022-11-05T10:42:14.600Z,7.53
2022-11-05T10:44:57.975Z,8.25
2022-11-05T10:47:57.911Z,7.53
2022-11-05T10:50:27.706Z,6.93
2022-11-05T10:53:29.506Z,7.57
2022-11-05T10:55:58.445Z,7.05
2022-11-05T10:58:30.593Z,8.40
2022-11-05T11:00:59.646Z,7.22
2022-11-05T11:03:45.369Z,7.57
2022-11-05T11:06:30.504Z,7.57
2022-11-05T11:09:00.101Z,8.05
2022-11-05T11:11:37.085Z,8.25
2022-11-05T11:14:17.696Z,7.15
2022-11-05T11:16:46.657Z,6.55
2022-11-05T11:19:34.860Z,6.53
2022-11-05T11:22:04.322Z,6.03
2022-11-05T11:24:42.508Z,6.13
2022-11-05T11:27:14.151Z,6.25
2022-11-05T11:29:48.984Z,6.20
2022-11-05T11:32:19.379Z,5.25
2022-11-05T11:34:51.171Z,5.60
2022-11-05T11:37:27.800Z,5.43
2022-11-05T11:40:15.973Z,5.10
2022-11-05T11:42:46.556Z,5.30
2022-11-05T11:45:38.846Z,5.07
2022-11-05T11:48:07.719Z,4.57
2022-11-05T11:50:43.522Z,4.55
2022-11-05T11:53:22.220Z,4.60
2022-11-05T11:56:05.454Z,5.00
2022-11-05T11:58:36.457Z,4.53
2022-11-05T12:01:28.662Z,5.00
2022-11-05T12:04:38.840Z,3.83
2022-11-05T12:07:20.768Z,3.85
2022-11-05T12:10:06.169Z,4.25
2022-11-05T12:15:37.701Z,4.10
2022-11-05T12:18:10.288Z,3.78
2022-11-05T12:20:42.920Z,3.80
2022-11-05T12:23:17.095Z,3.50
2022-11-05T12:26:29.120Z,4.55
2022-11-05T12:29:23.157Z,4.47
2022-11-05T12:31:56.277Z,5.72
2022-11-05T12:34:56.843Z,6.15
2022-11-05T12:37:52.556Z,3.42
2022-11-05T12:40:42.187Z,3.50
2022-11-05T12:43:18.523Z,2.95
2022-11-05T12:45:54.611Z,3.55
2022-11-05T12:48:37.224Z,3.42
2022-11-05T12:54:18.238Z,5.38
2022-11-05T12:56:53.141Z,5.88
2022-11-05T12:59:57.073Z,5.93
2022-11-05T13:02:50.807Z,6.75
2022-11-05T13:05:36.461Z,5.70
2022-11-05T13:08:15.723Z,6.03
2022-11-05T13:10:52.441Z,7.10
2022-11-05T13:13:28.938Z,6.03
2022-11-05T13:16:02.298Z,6.32
2022-11-05T13:18:41.903Z,5.70
2022-11-05T13:21:10.539Z,6.10
2022-11-05T13:23:49.344Z,5.60
2022-11-05T13:26:37.376Z,6.20
2022-11-05T13:29:10.130Z,6.50
2022-11-05T13:31:42.939Z,6.68
2022-11-05T13:34:11.812Z,5.45
2022-11-05T13:37:22.549Z,5.57
2022-11-05T13:40:01.352Z,6.05
2022-11-05T13:42:48.136Z,5.50
2022-11-05T13:45:23.718Z,5.40
2022-11-05T13:48:28.558Z,5.32
2022-11-05T13:51:24.304Z,5.15
2022-11-05T13:54:16.438Z,5.00
2022-11-05T13:57:12.885Z,5.00
2022-11-05T14:00:10.791Z,4.85
2022-11-05T14:02:45.981Z,5.22
2022-11-05T14:05:35.899Z,4.78
2022-11-05T14:08:19.295Z,4.82
2022-11-05T14:11:04.151Z,5.43
2022-11-05T14:13:36.168Z,5.38
2022-11-05T14:16:06.220Z,8.57
2022-11-05T14:18:44.266Z,12.23
2022-11-05T14:21:25.883Z,11.53
2022-11-05T14:24:24.443Z,9.20
2022-11-05T14:27:03.341Z,7.53
2022-11-05T14:29:49.769Z,7.57
2022-11-05T14:32:25.286Z,8.47
2022-11-05T14:35:03.832Z,7.30
2022-11-05T14:37:36.794Z,7.57
2022-11-05T14:40:29.438Z,7.57
2022-11-05T14:43:17.184Z,7.57
2022-11-05T14:46:02.430Z,7.70
2022-11-05T14:48:46.931Z,7.40
2022-11-05T14:51:22.644Z,7.70
2022-11-05T14:53:49.428Z,7.97
2022-11-05T14:56:19.006Z,7.67
2022-11-05T14:58:46.853Z,7.97
2022-11-05T15:01:13.546Z,9.43
2022-11-05T15:03:45.804Z,9.30
2022-11-05T15:06:35.620Z,8.43
2022-11-05T15:09:13.515Z,8.77
2022-11-05T15:11:47.635Z,9.37
2022-11-05T15:14:27.031Z,9.07
2022-11-05T15:16:58.700Z,9.60
2022-11-05T15:19:33.814Z,9.73
2022-11-05T15:22:05.688Z,9.27
2022-11-05T15:24:33.786Z,8.80
2022-11-05T15:27:14.705Z,8.77
2022-11-05T15:29:42.959Z,9.03
2022-11-05T15:32:18.096Z,8.47
2022-11-05T15:34:53.304Z,7.37
2022-11-05T15:37:23.990Z,8.47
2022-11-05T15:39:52.848Z,8.37
2022-11-05T15:42:23.058Z,7.93
2022-11-05T15:44:54.631Z,9.33
2022-11-05T15:47:30.191Z,9.47
2022-11-05T15:49:59.738Z,10.43
2022-11-05T15:52:42.148Z,8.80
2022-11-05T15:55:14.868Z,10.03
2022-11-05T15:57:51.038Z,9.27
2022-11-05T16:00:30.025Z,10.40
2022-11-05T16:03:03.041Z,10.13
2022-11-05T16:05:33.973Z,9.73
2022-11-05T16:08:02.164Z,9.13
2022-11-05T16:10:34.915Z,9.73
2022-11-05T16:13:35.001Z,8.77
2022-11-05T16:16:15.220Z,9.27
2022-11-05T16:18:43.342Z,9.40
2022-11-05T16:21:12.941Z,8.40
2022-11-05T16:23:54.324Z,8.00
2022-11-05T16:27:01.267Z,7.40
2022-11-05T16:29:35.571Z,7.10
2022-11-05T16:32:07.184Z,6.67
2022-11-05T16:34:38.837Z,6.53
2022-11-05T16:37:07.023Z,7.03
2022-11-05T16:39:34.024Z,8.57
2022-11-05T16:42:00.706Z,7.60
2022-11-05T16:44:27.411Z,7.20
2022-11-05T16:46:54.108Z,9.90
2022-11-05T16:49:20.925Z,12.13
2022-11-05T16:51:47.601Z,9.07
2022-11-05T16:54:14.343Z,8.23
2022-11-05T16:56:42.787Z,7.73
2022-11-05T16:59:12.803Z,6.97
2022-11-05T17:01:41.925Z,7.40
2022-11-05T17:04:11.556Z,8.20
2022-11-05T17:06:38.366Z,8.13
2022-11-05T17:09:05.156Z,9.83
2022-11-05T17:11:31.936Z,10.73
2022-11-05T17:13:58.610Z,11.70
2022-11-05T17:16:26.758Z,11.10
2022-11-05T17:18:53.430Z,10.27
2022-11-05T17:21:20.245Z,10.10
2022-11-05T17:23:46.951Z,9.77
2022-11-05T17:26:14.057Z,9.43
2022-11-05T17:28:41.096Z,9.23
2022-11-05T17:31:11.547Z,9.27
2022-11-05T17:33:38.569Z,8.57
2022-11-05T17:36:07.190Z,9.43
2022-11-05T17:38:34.048Z,9.07
2022-11-05T17:41:01.234Z,9.10
2022-11-05T17:43:27.937Z,8.03
2022-11-05T17:45:57.538Z,8.93
2022-11-05T17:48:26.782Z,8.40
2022-11-05T17:50:53.531Z,10.13
2022-11-05T17:53:20.576Z,14.33
2022-11-05T17:55:47.901Z,11.93
2022-11-05T17:58:14.955Z,10.17
2022-11-05T18:00:42.780Z,8.47
2022-11-05T18:03:10.915Z,8.97
2022-11-05T18:05:38.185Z,7.73
2022-11-05T18:08:05.841Z,7.60
2022-11-05T18:10:32.894Z,7.53
2022-11-05T18:12:59.590Z,7.43
2022-11-05T18:15:26.276Z,8.57
2022-11-05T18:17:54.108Z,8.20
2022-11-05T18:20:21.486Z,8.37
2022-11-05T18:22:51.594Z,8.17
2022-11-05T18:25:18.803Z,8.03
2022-11-05T18:27:45.612Z,8.40
2022-11-05T18:30:15.478Z,7.77
2022-11-05T18:32:43.703Z,7.40
2022-11-05T18:35:10.817Z,8.43
2022-11-05T18:37:38.891Z,9.37
2022-11-05T18:40:06.850Z,9.27
2022-11-05T18:42:33.570Z,8.70
2022-11-05T18:45:00.242Z,9.93
2022-11-05T18:47:28.143Z,10.30
2022-11-05T18:49:54.802Z,9.60
2022-11-05T18:52:21.482Z,10.33
2022-11-05T18:54:48.288Z,9.60
2022-11-05T18:57:15.017Z,10.50
2022-11-05T18:59:46.542Z,10.13
2022-11-05T19:02:14.477Z,10.87
2022-11-05T19:04:50.567Z,10.70
2022-11-05T19:07:27.485Z,10.63
2022-11-05T19:09:54.168Z,11.23
2022-11-05T19:12:20.862Z,13.50
2022-11-05T19:14:47.517Z,13.77
2022-11-05T19:17:14.197Z,13.63
2022-11-05T19:19:40.911Z,13.70
2022-11-05T19:22:07.638Z,14.47
2022-11-05T19:24:34.383Z,18.50
2022-11-05T19:27:01.105Z,16.70
2022-11-05T19:29:27.850Z,19.23
2022-11-05T19:31:54.609Z,18.77
2022-11-05T19:34:21.313Z,19.40
2022-11-05T19:36:48.010Z,21.47
2022-11-05T19:39:15.512Z,23.87
2022-11-05T19:41:42.966Z,22.10
2022-11-05T19:44:10.863Z,21.87
2022-11-05T19:46:39.165Z,20.20
2022-11-05T19:49:06.036Z,18.57
2022-11-05T19:51:33.181Z,16.73
2022-11-05T19:54:01.381Z,16.80
2022-11-05T19:56:30.785Z,15.47
2022-11-05T19:58:58.782Z,15.77
2022-11-05T20:01:27.623Z,15.90
2022-11-05T20:03:56.696Z,17.80
2022-11-05T20:06:34.051Z,16.70
2022-11-05T20:11:54.556Z,16.47
2022-11-05T20:14:22.688Z,16.77
2022-11-05T20:16:49.972Z,17.53
2022-11-05T20:19:20.145Z,15.63
2022-11-05T20:21:47.082Z,17.43
2022-11-05T20:24:22.459Z,16.23
2022-11-05T20:26:52.133Z,16.97
2022-11-05T20:29:19.048Z,17.00
2022-11-05T20:31:45.776Z,16.83
2022-11-05T20:34:12.490Z,18.60
2022-11-05T20:36:39.671Z,19.93
2022-11-05T20:39:06.389Z,19.80
2022-11-05T20:41:33.552Z,18.60
2022-11-05T20:44:00.352Z,16.80
2022-11-05T20:46:27.756Z,15.93
2022-11-05T20:48:54.810Z,16.10
2022-11-05T20:51:23.022Z,16.23
2022-11-05T20:53:50.150Z,16.47
2022-11-05T20:56:18.422Z,18.87
2022-11-05T20:58:45.803Z,17.77
2022-11-05T21:01:13.681Z,18.20
2022-11-05T21:03:40.924Z,17.53
2022-11-05T21:06:08.149Z,18.03
2022-11-05T21:08:35.568Z,17.10
2022-11-05T21:11:02.954Z,18.60
2022-11-05T21:13:30.695Z,17.87
2022-11-05T21:15:59.194Z,18.97
2022-11-05T21:18:27.884Z,18.70
2022-11-05T21:20:55.250Z,18.77
2022-11-05T21:23:22.593Z,16.33
2022-11-05T21:25:50.001Z,17.50
2022-11-05T21:28:17.170Z,17.67
2022-11-05T21:30:45.832Z,18.77
2022-11-05T21:33:13.744Z,19.93
2022-11-05T21:35:44.983Z,19.57
2022-11-05T21:38:13.821Z,21.07
2022-11-05T21:40:41.358Z,21.30
2022-11-05T21:43:08.587Z,21.80
2022-11-05T21:45:38.186Z,20.77
2022-11-05T21:48:05.422Z,19.47
2022-11-05T21:50:51.207Z,20.43
2022-11-05T21:53:37.200Z,18.63
2022-11-05T21:56:39.147Z,18.50
2022-11-05T21:59:25.038Z,14.93
2022-11-05T22:02:01.239Z,15.63
2022-11-05T22:04:32.195Z,14.03
2022-11-05T22:07:00.577Z,14.30
2022-11-05T22:09:28.055Z,13.13
2022-11-05T22:11:55.800Z,13.23
2022-11-05T22:14:23.278Z,13.33
2022-11-05T22:16:50.478Z,13.33
2022-11-05T22:19:17.709Z,13.60
2022-11-05T22:21:44.850Z,13.97
2022-11-05T22:24:12.014Z,14.90
2022-11-05T22:26:39.538Z,15.07
2022-11-05T22:29:07.105Z,15.33
2022-11-05T22:31:36.592Z,15.60
2022-11-05T22:34:04.382Z,17.10
2022-11-05T22:36:31.648Z,16.47
2022-11-05T22:38:58.863Z,16.50
2022-11-05T22:41:26.084Z,17.03
2022-11-05T22:43:53.207Z,18.33
2022-11-05T22:46:22.281Z,17.97
2022-11-05T22:48:49.616Z,19.60
2022-11-05T22:51:21.190Z,18.60
2022-11-05T22:53:48.816Z,16.97
2022-11-05T22:56:17.458Z,13.77
2022-11-05T22:58:44.574Z,13.30
2022-11-05T23:01:12.373Z,14.07
2022-11-05T23:03:40.351Z,13.80
2022-11-05T23:06:34.227Z,13.50
2022-11-05T23:09:21.256Z,14.00
2022-11-05T23:11:50.081Z,13.40
2022-11-05T23:14:17.282Z,14.30
2022-11-05T23:17:03.643Z,15.07
2022-11-05T23:19:50.169Z,14.07
2022-11-05T23:22:38.411Z,15.93
2022-11-05T23:25:06.409Z,15.87
2022-11-05T23:27:35.594Z,17.27
2022-11-05T23:30:05.529Z,15.50
2022-11-05T23:32:32.914Z,17.07
2022-11-05T23:35:00.087Z,16.37
2022-11-05T23:37:47.590Z,15.97
2022-11-05T23:40:16.325Z,16.00
2022-11-05T23:43:02.592Z,16.20
2022-11-05T23:45:49.589Z,15.53
2022-11-05T23:48:23.361Z,14.07
2022-11-05T23:50:56.550Z,15.67
2022-11-05T23:53:24.048Z,17.40
2022-11-05T23:55:51.306Z,16.30
2022-11-05T23:58:18.974Z,17.10
